Time;durP1;ratioP1;P1;durP2;ratioP2;P2;SDS_P1;SDS_P2;PMS_P1;PMS_P2;Temp;Humidity;BMP_temperature;BMP_pressure;BME280_temperature;BME280_humidity;BME280_pressure;Samples;Min_cycle;Max_cycle;Signal;HPM_P1;HPM_P2
2022/09/19 00:00:13;;;;;;;5.65;1.80;;;16.70;92.60;;;;;;5034475;28;20032;-76
2022/09/19 00:02:39;;;;;;;3.60;0.93;;;16.70;92.60;;;;;;5035489;28;20040;-75
2022/09/19 00:05:06;;;;;;;5.10;1.73;;;16.60;92.60;;;;;;5035122;28;20108;-75
2022/09/19 00:07:32;;;;;;;5.50;1.58;;;16.60;92.60;;;;;;5035148;28;20076;-75
2022/09/19 00:09:58;;;;;;;4.60;1.35;;;16.70;92.50;;;;;;5035196;28;20029;-76
2022/09/19 00:12:28;;;;;;;8.52;1.63;;;16.60;92.40;;;;;;5035393;28;20022;-76
2022/09/19 00:14:55;;;;;;;7.93;1.75;;;16.60;92.40;;;;;;5033889;28;20017;-76
2022/09/19 00:17:20;;;;;;;5.88;1.48;;;16.60;92.50;;;;;;5035219;28;20021;-75
2022/09/19 00:19:46;;;;;;;6.63;1.80;;;16.60;92.60;;;;;;5034778;28;20398;-75
2022/09/19 00:22:11;;;;;;;5.40;1.70;;;16.50;92.60;;;;;;5033835;28;20079;-75
2022/09/19 00:24:46;;;;;;;5.15;1.50;;;16.60;92.70;;;;;;5034978;28;20043;-75
2022/09/19 00:27:16;;;;;;;4.82;1.58;;;16.60;92.60;;;;;;5033971;28;20169;-75
2022/09/19 00:29:42;;;;;;;5.75;1.35;;;16.60;92.60;;;;;;5033641;28;20023;-76
2022/09/19 00:32:12;;;;;;;7.72;1.35;;;16.60;92.70;;;;;;5034409;28;20049;-78
2022/09/19 00:34:40;;;;;;;6.60;1.40;;;16.60;92.70;;;;;;5034841;28;20076;-75
2022/09/19 00:37:06;;;;;;;8.82;1.60;;;16.60;92.60;;;;;;5034883;28;20026;-76
2022/09/19 00:39:32;;;;;;;5.93;1.33;;;16.60;92.70;;;;;;5034724;28;20018;-76
2022/09/19 00:41:58;;;;;;;7.28;1.70;;;16.60;92.90;;;;;;5034801;28;20017;-76
2022/09/19 00:44:23;;;;;;;7.85;1.33;;;16.50;92.90;;;;;;5034567;28;20033;-76
2022/09/19 00:46:59;;;;;;;7.22;1.58;;;16.50;92.90;;;;;;5033086;28;20040;-76
2022/09/19 00:49:29;;;;;;;5.32;1.67;;;16.50;93.00;;;;;;5033185;28;20124;-75
2022/09/19 00:52:00;;;;;;;8.98;1.02;;;16.50;93.00;;;;;;5034575;28;20552;-75
2022/09/19 00:54:33;;;;;;;7.20;1.20;;;16.40;93.00;;;;;;5034283;28;20493;-75
2022/09/19 00:57:00;;;;;;;7.80;1.75;;;16.50;92.90;;;;;;5034388;28;20071;-76
2022/09/19 00:59:29;;;;;;;4.90;1.35;;;16.50;92.90;;;;;;5034379;28;20140;-75
2022/09/19 01:01:56;;;;;;;5.38;1.35;;;16.50;92.90;;;;;;5034393;28;20383;-75
2022/09/19 01:04:24;;;;;;;10.00;1.77;;;16.50;92.90;;;;;;5034290;28;20037;-75
2022/09/19 01:06:58;;;;;;;9.52;1.83;;;16.50;93.00;;;;;;5034077;28;20079;-75
2022/09/19 01:09:53;;;;;;;9.55;1.67;;;16.40;93.00;;;;;;5034197;28;20026;-76
2022/09/19 01:12:46;;;;;;;6.82;1.77;;;16.40;93.10;;;;;;5034285;28;20112;-76
2022/09/19 01:15:30;;;;;;;7.82;1.23;;;16.40;93.00;;;;;;5032926;28;20056;-75
2022/09/19 01:17:59;;;;;;;9.95;1.40;;;16.50;93.00;;;;;;5033919;28;20105;-78
2022/09/19 01:20:58;;;;;;;8.63;1.50;;;16.50;93.00;;;;;;5034003;28;20072;-75
2022/09/19 01:23:39;;;;;;;5.35;1.00;;;16.40;93.10;;;;;;5033868;28;20045;-75
2022/09/19 01:26:19;;;;;;;5.55;1.20;;;16.50;93.00;;;;;;5033845;28;20025;-75
2022/09/19 01:29:07;;;;;;;6.50;1.67;;;16.40;93.00;;;;;;5034026;28;20036;-75
2022/09/19 01:31:36;;;;;;;11.65;2.03;;;16.30;93.00;;;;;;5033330;28;20471;-76
2022/09/19 01:34:13;;;;;;;8.73;1.83;;;16.40;92.90;;;;;;5033664;28;20033;-75
2022/09/19 01:36:43;;;;;;;5.57;1.42;;;16.40;92.80;;;;;;5033064;28;20034;-75
2022/09/19 01:39:11;;;;;;;7.60;1.70;;;16.30;92.90;;;;;;5033842;28;20014;-75
2022/09/19 01:41:36;;;;;;;4.57;1.70;;;16.30;92.80;;;;;;5032492;28;20030;-76
2022/09/19 01:44:08;;;;;;;6.32;1.90;;;16.30;92.80;;;;;;5033609;28;20494;-76
2022/09/19 01:46:35;;;;;;;7.43;1.42;;;16.30;92.80;;;;;;5031685;28;20029;-77
2022/09/19 01:49:08;;;;;;;7.97;1.70;;;16.30;92.80;;;;;;5033513;28;20156;-75
2022/09/19 01:51:45;;;;;;;7.55;2.15;;;16.30;92.90;;;;;;5033220;28;20036;-75
2022/09/19 01:54:27;;;;;;;8.65;2.45;;;16.30;92.90;;;;;;5033473;28;20026;-75
2022/09/19 01:57:08;;;;;;;11.63;2.20;;;16.30;92.80;;;;;;5033304;28;20489;-75
2022/09/19 01:59:46;;;;;;;9.90;2.40;;;16.20;92.90;;;;;;5032901;28;20025;-75
2022/09/19 02:02:38;;;;;;;9.82;2.03;;;16.20;92.90;;;;;;5033417;28;20033;-76
2022/09/19 02:05:23;;;;;;;11.70;2.25;;;16.20;93.00;;;;;;5033650;28;20104;-75
2022/09/19 02:08:17;;;;;;;12.05;2.05;;;16.20;93.00;;;;;;5033380;28;20021;-75
2022/09/19 02:10:57;;;;;;;8.93;2.22;;;16.20;93.00;;;;;;5031872;28;20056;-74
2022/09/19 02:13:26;;;;;;;5.78;1.90;;;16.20;93.00;;;;;;5032161;28;20549;-75
2022/09/19 02:16:00;;;;;;;8.65;2.25;;;16.20;93.10;;;;;;5032704;28;20032;-75
2022/09/19 02:18:41;;;;;;;9.52;2.00;;;16.10;93.00;;;;;;5033606;28;20025;-76
2022/09/19 02:21:13;;;;;;;6.50;1.90;;;16.10;93.20;;;;;;5031801;28;20053;-76
2022/09/19 02:23:47;;;;;;;8.70;2.33;;;16.10;93.10;;;;;;5019660;28;20061;-75
2022/09/19 02:26:16;;;;;;;5.97;2.30;;;16.10;92.90;;;;;;5015370;28;20038;-75
2022/09/19 02:28:44;;;;;;;8.20;2.05;;;16.10;92.90;;;;;;5021368;28;20100;-76
2022/09/19 02:31:11;;;;;;;10.20;2.53;;;16.10;93.10;;;;;;5031480;28;20041;-75
2022/09/19 02:33:39;;;;;;;6.45;1.80;;;16.10;93.00;;;;;;5016331;28;20080;-77
2022/09/19 02:36:16;;;;;;;8.32;2.15;;;16.10;93.00;;;;;;5010835;28;20030;-77
2022/09/19 02:38:49;;;;;;;9.18;2.60;;;16.10;93.00;;;;;;5012723;28;20013;-78
2022/09/19 02:41:21;;;;;;;9.23;2.38;;;16.10;93.00;;;;;;5012845;28;20032;-76
2022/09/19 02:44:19;;;;;;;9.68;1.90;;;16.10;93.20;;;;;;5012691;28;20101;-76
2022/09/19 02:46:54;;;;;;;8.18;2.22;;;16.10;93.20;;;;;;5012639;28;20042;-75
2022/09/19 02:49:28;;;;;;;6.47;1.83;;;16.10;93.20;;;;;;5015944;28;20022;-75
2022/09/19 02:51:57;;;;;;;8.32;2.10;;;16.10;93.20;;;;;;5016976;28;20104;-76
2022/09/19 02:54:29;;;;;;;6.35;1.85;;;16.20;93.30;;;;;;5017098;28;20093;-76
2022/09/19 02:56:59;;;;;;;14.05;2.50;;;16.10;93.30;;;;;;5015408;28;20463;-75
2022/09/19 02:59:29;;;;;;;7.20;2.08;;;16.10;93.20;;;;;;5016674;28;20079;-76
2022/09/19 03:02:02;;;;;;;7.55;1.88;;;16.10;93.10;;;;;;5016664;28;20034;-76
2022/09/19 03:04:35;;;;;;;9.50;2.22;;;16.00;93.10;;;;;;5016958;28;20490;-76
2022/09/19 03:07:15;;;;;;;7.85;1.92;;;16.00;93.10;;;;;;5016705;28;20034;-76
2022/09/19 03:09:55;;;;;;;9.40;2.20;;;16.00;93.00;;;;;;5016677;28;20026;-75
2022/09/19 03:12:29;;;;;;;7.00;1.80;;;16.00;93.00;;;;;;5015261;28;20034;-75
2022/09/19 03:14:58;;;;;;;7.10;1.50;;;16.00;93.00;;;;;;5016735;28;20021;-76
2022/09/19 03:17:35;;;;;;;7.85;1.73;;;16.00;92.90;;;;;;5016584;28;20022;-76
2022/09/19 03:20:01;;;;;;;6.20;1.67;;;16.00;92.90;;;;;;5016661;28;20586;-75
2022/09/19 03:22:26;;;;;;;6.90;1.75;;;15.90;92.90;;;;;;5016290;28;20057;-76
2022/09/19 03:24:52;;;;;;;6.53;1.65;;;15.90;92.90;;;;;;5016388;28;20463;-76
2022/09/19 03:27:18;;;;;;;7.80;2.17;;;15.90;92.90;;;;;;5015867;28;20033;-76
2022/09/19 03:29:43;;;;;;;10.75;2.55;;;15.90;92.80;;;;;;5016425;28;20029;-75
2022/09/19 03:32:10;;;;;;;8.68;1.80;;;15.90;92.80;;;;;;5016198;28;20056;-76
2022/09/19 03:34:35;;;;;;;9.93;1.98;;;15.90;92.90;;;;;;5016228;28;20109;-75
2022/09/19 03:37:02;;;;;;;8.20;2.22;;;15.80;92.90;;;;;;5016321;28;20109;-78
2022/09/19 03:39:28;;;;;;;5.97;1.40;;;15.80;92.80;;;;;;5015926;28;20025;-75
2022/09/19 03:41:54;;;;;;;10.48;2.22;;;15.90;92.80;;;;;;5016107;28;20041;-75
2022/09/19 03:44:19;;;;;;;8.30;1.60;;;15.80;92.80;;;;;;5015532;28;20029;-75
2022/09/19 03:46:46;;;;;;;8.95;2.33;;;15.80;92.80;;;;;;5013084;28;20029;-75
2022/09/19 03:49:11;;;;;;;10.05;1.85;;;15.80;92.80;;;;;;5014835;28;20113;-76
2022/09/19 03:51:37;;;;;;;7.35;1.85;;;15.80;92.80;;;;;;5014729;28;20112;-75
2022/09/19 03:54:03;;;;;;;9.05;2.38;;;15.70;92.70;;;;;;5014447;28;20026;-74
2022/09/19 03:56:29;;;;;;;7.55;1.80;;;15.70;92.70;;;;;;5014304;28;20018;-75
2022/09/19 03:58:55;;;;;;;8.20;1.90;;;15.80;92.70;;;;;;5014141;28;20033;-76
2022/09/19 04:01:21;;;;;;;11.88;2.47;;;15.70;92.60;;;;;;5014711;28;20026;-75
2022/09/19 04:03:46;;;;;;;3.80;1.30;;;15.70;92.70;;;;;;5014561;28;20557;-76
2022/09/19 04:06:12;;;;;;;7.13;2.03;;;15.60;92.70;;;;;;5014589;28;20511;-75
2022/09/19 04:08:38;;;;;;;9.43;1.73;;;15.60;92.70;;;;;;5014426;28;20495;-75
2022/09/19 04:11:04;;;;;;;7.18;2.05;;;15.70;92.80;;;;;;5014111;28;20045;-75
2022/09/19 04:13:32;;;;;;;9.20;1.80;;;15.60;92.70;;;;;;5014442;28;20045;-75
2022/09/19 04:15:59;;;;;;;5.95;1.83;;;15.60;92.70;;;;;;5029754;28;20471;-75
2022/09/19 04:18:25;;;;;;;9.63;2.40;;;15.60;92.70;;;;;;5013085;28;20095;-76
2022/09/19 04:20:51;;;;;;;11.70;2.50;;;15.60;92.70;;;;;;5014443;28;20518;-75
2022/09/19 04:23:16;;;;;;;10.05;2.58;;;15.60;92.50;;;;;;5014100;28;20507;-75
2022/09/19 04:25:44;;;;;;;10.00;2.00;;;15.60;92.60;;;;;;5013894;28;20079;-76
2022/09/19 04:28:11;;;;;;;9.57;2.47;;;15.60;92.70;;;;;;5014249;28;20422;-75
2022/09/19 04:30:40;;;;;;;8.50;1.90;;;15.50;92.80;;;;;;5014013;28;20471;-75
2022/09/19 04:33:07;;;;;;;9.50;2.13;;;15.50;92.90;;;;;;5012846;28;20029;-75
2022/09/19 04:35:35;;;;;;;7.38;2.35;;;15.60;92.90;;;;;;5014166;28;20037;-75
2022/09/19 04:38:06;;;;;;;8.32;2.58;;;15.50;92.80;;;;;;5013968;28;20111;-75
2022/09/19 04:40:39;;;;;;;9.55;2.60;;;15.60;93.00;;;;;;5012727;28;20017;-75
2022/09/19 04:43:10;;;;;;;9.20;2.72;;;15.60;93.00;;;;;;5016036;28;20034;-75
2022/09/19 04:45:37;;;;;;;6.97;2.28;;;15.50;93.00;;;;;;4997601;28;1038489;-75
2022/09/19 04:48:05;;;;;;;7.43;1.90;;;15.50;93.00;;;;;;5030768;28;20080;-75
2022/09/19 04:50:33;;;;;;;5.80;2.00;;;15.50;93.10;;;;;;5016711;28;20045;-75
2022/09/19 04:52:58;;;;;;;10.52;2.10;;;15.50;93.00;;;;;;5014176;28;20040;-76
2022/09/19 04:55:25;;;;;;;9.40;2.00;;;14.90;93.80;;;;;;5016737;28;20034;-75
2022/09/19 04:57:51;;;;;;;9.32;2.65;;;14.40;94.70;;;;;;5014227;28;20018;-76
2022/09/19 05:00:36;;;;;;;7.32;1.83;;;14.20;95.20;;;;;;5013351;28;20053;-80
2022/09/19 05:03:13;;;;;;;7.13;1.90;;;14.40;94.10;;;;;;5025675;28;20116;-76
2022/09/19 05:05:51;;;;;;;7.97;1.42;;;14.70;93.50;;;;;;5019073;28;20029;-76
2022/09/19 05:08:20;;;;;;;6.32;1.58;;;14.90;93.20;;;;;;5011976;28;20211;-77
2022/09/19 05:10:47;;;;;;;9.50;2.20;;;14.90;93.20;;;;;;5013457;28;20056;-77
2022/09/19 05:13:13;;;;;;;6.63;1.70;;;15.00;93.10;;;;;;5014399;28;20364;-77
2022/09/19 05:15:41;;;;;;;6.05;1.85;;;15.00;93.10;;;;;;5012228;28;20044;-76
2022/09/19 05:18:10;;;;;;;6.72;1.70;;;15.00;93.20;;;;;;5017887;28;20044;-77
2022/09/19 05:20:35;;;;;;;6.15;2.05;;;15.00;93.10;;;;;;5021425;28;20022;-76
2022/09/19 05:23:01;;;;;;;10.18;2.17;;;15.00;93.30;;;;;;5031372;28;20035;-77
2022/09/19 05:25:29;;;;;;;10.02;2.22;;;15.00;93.40;;;;;;5023217;28;20096;-77
2022/09/19 05:28:05;;;;;;;9.52;2.20;;;15.00;93.40;;;;;;5011589;28;20087;-76
2022/09/19 05:30:32;;;;;;;9.85;2.22;;;15.00;93.50;;;;;;5021205;28;20100;-77
2022/09/19 05:32:59;;;;;;;5.03;1.65;;;15.00;93.70;;;;;;5034443;28;20029;-77
2022/09/19 05:35:26;;;;;;;5.07;1.90;;;15.00;93.70;;;;;;5032405;28;20037;-79
2022/09/19 05:37:51;;;;;;;7.35;2.13;;;15.00;93.60;;;;;;5022573;28;20457;-76
2022/09/19 05:40:18;;;;;;;8.10;1.85;;;15.00;93.70;;;;;;5019437;28;20113;-76
2022/09/19 05:42:46;;;;;;;7.90;2.00;;;15.10;93.90;;;;;;5016784;28;20113;-77
2022/09/19 05:45:13;;;;;;;5.25;1.48;;;15.00;94.10;;;;;;5037623;28;20043;-77
2022/09/19 05:47:39;;;;;;;10.27;2.10;;;15.00;94.20;;;;;;5019550;28;20022;-77
2022/09/19 05:50:10;;;;;;;8.90;2.08;;;15.00;94.20;;;;;;5019147;28;20021;-79
2022/09/19 05:55:22;;;;;;;8.75;2.17;;;15.10;94.40;;;;;;5013790;28;20087;-80
2022/09/19 05:57:56;;;;;;;8.43;1.95;;;15.10;94.10;;;;;;5011351;28;20480;-80
2022/09/19 06:00:24;;;;;;;6.68;1.95;;;15.10;94.00;;;;;;5013599;28;20029;-79
2022/09/19 06:02:58;;;;;;;10.63;2.88;;;15.20;94.00;;;;;;5015347;28;20433;-78
2022/09/19 06:05:24;;;;;;;8.05;2.78;;;15.40;95.60;;;;;;5029102;28;20029;-77
2022/09/19 06:07:51;;;;;;;10.02;3.10;;;15.80;94.90;;;;;;5015355;28;20058;-78
2022/09/19 06:10:18;;;;;;;7.82;1.92;;;16.00;94.60;;;;;;5016797;28;20030;-79
2022/09/19 06:12:44;;;;;;;12.35;1.98;;;16.00;94.40;;;;;;5008435;28;20091;-78
2022/09/19 06:15:10;;;;;;;10.02;2.28;;;16.10;94.30;;;;;;5025167;28;20025;-77
2022/09/19 06:17:36;;;;;;;12.52;2.15;;;16.30;94.40;;;;;;5033184;28;20104;-78
2022/09/19 06:20:02;;;;;;;6.20;1.45;;;16.20;94.10;;;;;;5030877;28;20542;-78
2022/09/19 06:22:29;;;;;;;6.78;1.98;;;16.30;94.10;;;;;;5031571;28;20040;-78
2022/09/19 06:24:55;;;;;;;13.88;2.50;;;16.30;94.10;;;;;;5032067;28;20025;-78
2022/09/19 06:27:20;;;;;;;6.20;1.88;;;16.30;94.20;;;;;;5032052;28;20175;-78
2022/09/19 06:29:46;;;;;;;10.48;2.42;;;16.20;94.30;;;;;;5031891;28;20014;-77
2022/09/19 06:32:11;;;;;;;6.63;2.00;;;16.30;94.40;;;;;;5032533;28;20033;-78
2022/09/19 06:34:37;;;;;;;10.10;1.98;;;16.20;94.50;;;;;;5032332;28;20025;-78
2022/09/19 06:37:03;;;;;;;8.23;2.35;;;16.20;94.50;;;;;;5032647;28;20119;-78
2022/09/19 06:39:29;;;;;;;7.40;2.03;;;16.30;94.50;;;;;;5032721;28;20041;-78
2022/09/19 06:41:55;;;;;;;9.52;2.40;;;16.30;94.50;;;;;;5031489;28;20463;-78
2022/09/19 06:44:21;;;;;;;11.20;3.63;;;16.30;94.60;;;;;;5032916;28;20053;-77
2022/09/19 06:46:47;;;;;;;8.45;3.00;;;16.30;94.70;;;;;;5032614;28;20030;-78
2022/09/19 06:49:12;;;;;;;11.15;2.63;;;16.40;94.90;;;;;;5032250;28;20044;-77
2022/09/19 06:51:38;;;;;;;9.25;2.60;;;16.50;94.80;;;;;;5032495;28;20117;-77
2022/09/19 06:54:04;;;;;;;9.98;3.00;;;16.40;94.70;;;;;;5024227;28;20025;-78
2022/09/19 06:56:29;;;;;;;8.65;3.10;;;16.50;94.80;;;;;;5013029;28;20033;-78
2022/09/19 06:58:55;;;;;;;8.73;2.75;;;16.50;94.70;;;;;;5011111;28;20025;-77
2022/09/19 07:01:22;;;;;;;8.15;2.65;;;16.60;94.60;;;;;;5013019;28;20033;-78
2022/09/19 07:03:48;;;;;;;9.50;2.42;;;16.50;94.80;;;;;;5012846;28;20084;-78
2022/09/19 07:06:13;;;;;;;10.30;2.35;;;16.50;94.70;;;;;;5013348;28;20030;-79
2022/09/19 07:08:39;;;;;;;11.65;3.00;;;16.60;94.80;;;;;;5013202;28;20486;-78
2022/09/19 07:11:05;;;;;;;9.40;2.58;;;16.70;94.80;;;;;;5015641;28;20026;-78
2022/09/19 07:13:30;;;;;;;10.18;3.05;;;16.60;94.80;;;;;;5020711;28;20018;-78
2022/09/19 07:16:02;;;;;;;10.05;3.17;;;16.60;95.00;;;;;;5012929;28;20493;-80
2022/09/19 07:18:28;;;;;;;11.32;3.38;;;16.60;95.00;;;;;;5031311;28;20163;-78
2022/09/19 07:20:53;;;;;;;15.38;3.75;;;16.60;95.00;;;;;;5032538;28;20108;-79
2022/09/19 07:23:19;;;;;;;9.57;3.95;;;16.60;95.20;;;;;;5024238;28;20022;-78
2022/09/19 07:25:46;;;;;;;10.70;2.88;;;16.70;95.10;;;;;;5027674;28;20030;-77
2022/09/19 07:28:16;;;;;;;12.25;3.30;;;16.80;95.10;;;;;;5032362;28;20029;-78
2022/09/19 07:30:44;;;;;;;8.18;2.97;;;16.80;95.10;;;;;;5034026;28;20031;-78
2022/09/19 07:33:12;;;;;;;6.82;2.13;;;16.90;95.00;;;;;;5037602;28;20028;-77
2022/09/19 07:35:41;;;;;;;7.38;3.08;;;16.90;94.90;;;;;;5025519;28;20379;-77
2022/09/19 07:38:09;;;;;;;10.23;2.85;;;16.70;95.10;;;;;;5015998;28;20018;-76
2022/09/19 07:40:34;;;;;;;11.07;2.75;;;16.50;95.40;;;;;;5030942;28;20025;-77
2022/09/19 07:43:04;;;;;;;13.77;2.92;;;16.50;95.50;;;;;;5034585;28;20507;-79
2022/09/19 07:45:32;;;;;;;6.72;2.10;;;16.50;95.50;;;;;;5033131;28;20121;-82
2022/09/19 07:47:58;;;;;;;11.93;2.53;;;16.50;95.50;;;;;;5034785;28;20041;-78
2022/09/19 07:50:23;;;;;;;8.55;2.08;;;16.40;95.80;;;;;;5035304;28;20025;-77
2022/09/19 07:52:58;;;;;;;11.20;2.38;;;16.50;96.00;;;;;;5028649;28;20056;-79
2022/09/19 07:55:24;;;;;;;10.35;1.88;;;16.30;96.40;;;;;;5029487;28;20084;-80
2022/09/19 07:57:53;;;;;;;10.90;2.70;;;16.30;96.60;;;;;;5020210;28;20483;-80
2022/09/19 08:00:19;;;;;;;10.35;2.55;;;16.20;97.20;;;;;;5023223;28;20093;-76
2022/09/19 08:02:53;;;;;;;9.98;2.55;;;16.10;97.00;;;;;;5042935;28;20041;-77
2022/09/19 08:05:19;;;;;;;10.30;2.45;;;16.10;97.30;;;;;;5032193;28;20021;-78
2022/09/19 08:07:45;;;;;;;9.88;2.45;;;16.10;97.40;;;;;;5037261;28;20095;-78
2022/09/19 08:10:10;;;;;;;11.52;1.77;;;16.10;97.20;;;;;;5048008;28;20066;-78
2022/09/19 08:12:37;;;;;;;10.52;1.85;;;16.20;97.40;;;;;;5036819;28;20021;-76
2022/09/19 08:15:03;;;;;;;10.52;1.95;;;16.20;97.30;;;;;;5044891;28;20044;-76
2022/09/19 08:17:28;;;;;;;7.63;1.80;;;16.20;97.00;;;;;;5032059;28;20497;-77
2022/09/19 08:19:55;;;;;;;10.48;1.98;;;16.20;96.70;;;;;;5042431;28;20036;-77
2022/09/19 08:22:21;;;;;;;5.82;1.38;;;16.20;96.60;;;;;;5035142;28;20478;-80
2022/09/19 08:24:46;;;;;;;11.18;1.83;;;16.20;96.60;;;;;;5038780;28;20192;-79
2022/09/19 08:27:13;;;;;;;5.70;1.42;;;16.30;96.70;;;;;;5038154;28;20026;-78
2022/09/19 08:29:38;;;;;;;5.95;1.40;;;16.30;97.20;;;;;;5024094;28;20032;-76
2022/09/19 08:32:04;;;;;;;11.60;2.95;;;16.30;97.60;;;;;;5031733;28;20049;-74
2022/09/19 08:34:30;;;;;;;10.90;2.20;;;16.30;97.50;;;;;;5027549;28;20057;-75
2022/09/19 08:36:58;;;;;;;10.77;2.92;;;16.30;98.10;;;;;;5021527;28;20475;-74
2022/09/19 08:39:25;;;;;;;15.18;3.47;;;16.30;98.10;;;;;;5041704;28;20110;-74
2022/09/19 08:42:11;;;;;;;8.00;2.10;;;16.40;98.20;;;;;;5048173;28;20493;-74
2022/09/19 08:45:00;;;;;;;7.50;1.70;;;16.30;97.90;;;;;;5017425;28;20024;-74
2022/09/19 08:47:27;;;;;;;6.28;2.08;;;16.40;98.30;;;;;;5019133;28;20391;-74
2022/09/19 08:50:10;;;;;;;5.65;1.30;;;16.40;98.20;;;;;;5033841;28;20032;-74
2022/09/19 08:52:48;;;;;;;7.70;1.70;;;16.40;98.20;;;;;;5019707;28;20029;-74
2022/09/19 08:55:18;;;;;;;7.60;1.70;;;16.40;97.80;;;;;;5042481;28;20017;-75
2022/09/19 08:57:54;;;;;;;10.35;2.03;;;16.40;97.50;;;;;;5029164;28;20112;-75
2022/09/19 09:00:22;;;;;;;8.60;1.73;;;16.40;97.60;;;;;;5032986;28;20107;-74
2022/09/19 09:02:51;;;;;;;10.10;1.48;;;16.50;97.80;;;;;;5028264;28;20018;-74
2022/09/19 09:05:38;;;;;;;7.55;2.00;;;16.50;97.70;;;;;;5031421;28;20033;-75
2022/09/19 09:08:38;;;;;;;5.45;1.30;;;16.50;97.80;;;;;;5026510;28;20026;-74
2022/09/19 09:11:22;;;;;;;8.98;1.92;;;16.50;97.60;;;;;;5047468;28;20088;-74
2022/09/19 09:14:14;;;;;;;10.10;2.42;;;16.60;97.80;;;;;;5016826;28;20025;-75
2022/09/19 09:17:04;;;;;;;11.70;2.33;;;16.60;97.80;;;;;;5014216;28;20518;-74
2022/09/19 09:19:39;;;;;;;6.75;2.00;;;16.60;98.00;;;;;;5023394;28;20030;-74
2022/09/19 09:22:16;;;;;;;7.55;1.80;;;16.60;97.80;;;;;;5021769;28;20079;-74
2022/09/19 09:24:47;;;;;;;7.18;2.13;;;16.60;97.70;;;;;;5030434;28;20052;-74
2022/09/19 09:27:18;;;;;;;10.20;2.13;;;16.60;97.70;;;;;;5021951;28;20044;-74
2022/09/19 09:30:13;;;;;;;7.80;2.72;;;16.60;97.80;;;;;;5014706;28;20288;-75
2022/09/19 09:32:45;;;;;;;9.20;2.10;;;16.60;97.90;;;;;;5020660;28;20490;-74
2022/09/19 09:35:29;;;;;;;9.02;2.50;;;16.60;97.70;;;;;;5021021;28;20032;-74
2022/09/19 09:38:12;;;;;;;6.78;2.10;;;16.70;97.80;;;;;;5024598;28;20022;-74
2022/09/19 09:44:06;;;;;;;9.80;2.28;;;16.70;97.60;;;;;;5018664;28;20097;-77
2022/09/19 09:46:54;;;;;;;7.35;2.10;;;16.80;97.60;;;;;;5017768;28;20120;-77
2022/09/19 09:49:29;;;;;;;9.55;1.92;;;16.90;97.50;;;;;;5013018;28;20033;-78
2022/09/19 09:52:03;;;;;;;9.63;2.22;;;16.80;97.60;;;;;;5014563;28;20474;-78
2022/09/19 09:57:47;;;;;;;8.20;1.67;;;16.90;97.70;;;;;;5027429;28;20048;-77
2022/09/19 10:03:38;;;;;;;11.88;2.03;;;16.90;97.30;;;;;;5021543;28;20053;-77
2022/09/19 10:06:17;;;;;;;7.22;2.25;;;17.00;97.30;;;;;;5030211;28;20030;-78
2022/09/19 10:09:17;;;;;;;8.48;1.70;;;17.00;97.20;;;;;;5022387;28;20533;-77
2022/09/19 10:11:58;;;;;;;12.85;2.25;;;17.00;97.20;;;;;;5017487;28;20033;-79
2022/09/19 10:14:28;;;;;;;8.90;2.00;;;17.00;97.00;;;;;;5022242;28;20025;-78
2022/09/19 10:17:00;;;;;;;8.55;1.92;;;17.10;97.00;;;;;;5019532;28;20037;-78
2022/09/19 10:19:28;;;;;;;9.85;1.88;;;17.00;96.90;;;;;;5012742;28;20017;-79
2022/09/19 10:21:56;;;;;;;10.60;1.88;;;17.10;96.70;;;;;;5012745;28;20032;-78
2022/09/19 10:24:42;;;;;;;5.85;1.38;;;17.10;96.60;;;;;;5022244;28;20032;-78
2022/09/19 10:27:26;;;;;;;8.48;1.65;;;17.10;96.60;;;;;;5014336;28;20386;-78
2022/09/19 10:30:25;;;;;;;11.07;1.80;;;17.20;96.40;;;;;;5012894;28;20022;-78
2022/09/19 10:32:51;;;;;;;4.47;1.00;;;17.20;96.30;;;;;;5017226;28;20038;-78
2022/09/19 10:35:36;;;;;;;5.32;1.70;;;17.30;96.00;;;;;;5012722;28;20022;-78
2022/09/19 10:38:11;;;;;;;7.97;1.58;;;17.20;96.10;;;;;;5012753;28;20088;-78
2022/09/19 10:40:37;;;;;;;9.60;1.70;;;17.20;96.00;;;;;;5012938;28;20101;-78
2022/09/19 10:43:03;;;;;;;11.50;2.05;;;17.30;96.00;;;;;;5013008;28;20502;-78
2022/09/19 10:45:32;;;;;;;7.25;2.42;;;17.30;95.90;;;;;;5011892;28;20083;-78
2022/09/19 10:48:10;;;;;;;10.35;1.92;;;17.30;95.90;;;;;;5011608;28;20045;-78
2022/09/19 10:50:45;;;;;;;4.82;1.50;;;17.30;95.90;;;;;;5012658;28;20022;-78
2022/09/19 10:53:18;;;;;;;17.05;1.98;;;17.30;95.90;;;;;;5012949;28;20025;-78
2022/09/19 10:55:44;;;;;;;4.78;1.38;;;17.30;95.90;;;;;;5012167;28;20029;-78
2022/09/19 10:58:22;;;;;;;5.70;1.40;;;17.40;95.90;;;;;;5012838;28;20398;-78
2022/09/19 11:00:56;;;;;;;5.28;1.42;;;17.40;95.70;;;;;;5012702;28;20025;-78
2022/09/19 11:03:30;;;;;;;8.30;1.60;;;17.50;95.50;;;;;;5012597;28;20029;-77
2022/09/19 11:06:10;;;;;;;9.65;2.38;;;17.50;95.30;;;;;;5012476;28;20034;-78
2022/09/19 11:08:49;;;;;;;7.78;1.60;;;17.40;95.50;;;;;;5012521;28;20029;-78
2022/09/19 11:11:45;;;;;;;7.00;1.50;;;17.50;95.50;;;;;;5016191;28;20022;-78
2022/09/19 11:14:32;;;;;;;6.90;2.15;;;17.50;95.50;;;;;;5015219;28;20022;-78
2022/09/19 11:17:17;;;;;;;3.65;1.13;;;17.60;95.40;;;;;;5016495;28;20471;-78
2022/09/19 11:20:00;;;;;;;10.27;2.05;;;17.60;95.40;;;;;;5016353;28;20101;-78
2022/09/19 11:22:41;;;;;;;3.75;1.00;;;17.60;95.20;;;;;;5016196;28;20458;-78
2022/09/19 11:25:22;;;;;;;10.15;2.17;;;17.60;95.20;;;;;;5029831;28;20458;-78
2022/09/19 11:28:25;;;;;;;6.72;1.30;;;17.60;95.10;;;;;;5016167;28;20049;-78
2022/09/19 11:31:17;;;;;;;4.30;1.38;;;17.70;95.00;;;;;;5016240;28;20544;-78
2022/09/19 11:33:58;;;;;;;7.68;1.55;;;17.70;94.90;;;;;;5016070;28;20533;-78
2022/09/19 11:36:48;;;;;;;5.75;1.35;;;17.60;94.90;;;;;;5016582;28;20038;-78
2022/09/19 11:39:32;;;;;;;7.07;1.42;;;17.70;94.70;;;;;;5015722;28;20026;-78
2022/09/19 11:42:16;;;;;;;11.63;1.30;;;17.70;94.70;;;;;;5016133;28;20051;-78
2022/09/19 11:45:20;;;;;;;8.15;1.70;;;17.70;94.70;;;;;;5015903;28;20029;-78
2022/09/19 11:48:10;;;;;;;9.02;1.52;;;17.70;94.60;;;;;;5015609;28;20096;-78
2022/09/19 11:50:59;;;;;;;6.60;1.23;;;17.80;94.40;;;;;;5015947;28;20037;-78
2022/09/19 11:53:36;;;;;;;6.35;1.40;;;17.90;94.30;;;;;;5015723;28;20030;-78
2022/09/19 11:56:36;;;;;;;7.40;1.30;;;17.80;94.30;;;;;;5029290;28;20021;-78
2022/09/19 11:59:25;;;;;;;5.20;1.13;;;17.90;94.20;;;;;;5026049;28;20033;-78
2022/09/19 12:02:06;;;;;;;7.07;1.33;;;17.90;94.20;;;;;;5005230;28;20501;-78
2022/09/19 12:04:48;;;;;;;7.07;1.30;;;17.90;94.10;;;;;;5015409;28;20026;-77
2022/09/19 12:07:34;;;;;;;;;;;17.90;94.00;;;;;;5015861;28;20515;-78
2022/09/19 12:10:29;;;;;;;9.10;1.63;;;18.00;93.70;;;;;;5015107;28;19996;-78
2022/09/19 12:13:14;;;;;;;5.38;1.45;;;17.90;93.60;;;;;;5021294;28;20495;-78
2022/09/19 12:15:48;;;;;;;9.88;1.08;;;18.00;93.60;;;;;;5015166;28;20018;-78
2022/09/19 12:18:24;;;;;;;7.55;1.13;;;18.00;93.30;;;;;;5015238;28;20108;-78
2022/09/19 12:20:54;;;;;;;6.18;1.10;;;18.00;93.30;;;;;;5014822;28;20064;-78
2022/09/19 12:26:12;;;;;;;7.63;1.33;;;18.00;93.10;;;;;;5025387;28;20096;-77
2022/09/19 12:28:47;;;;;;;5.78;0.85;;;18.10;92.90;;;;;;5015008;28;20030;-78
2022/09/19 12:31:20;;;;;;;8.93;0.90;;;18.10;91.20;;;;;;5015143;28;20057;-78
2022/09/19 12:34:23;;;;;;;5.68;0.80;;;18.00;89.70;;;;;;5015090;28;20022;-78
2022/09/19 12:36:55;;;;;;;7.05;1.05;;;18.10;91.00;;;;;;5014968;28;20096;-78
2022/09/19 12:39:41;;;;;;;5.90;1.38;;;18.10;91.70;;;;;;5014648;28;20109;-77
2022/09/19 12:42:19;;;;;;;5.72;1.13;;;18.20;91.40;;;;;;5014918;28;20030;-78
2022/09/19 12:45:22;;;;;;;4.20;0.90;;;18.20;91.60;;;;;;5014794;28;20014;-77
2022/09/19 12:48:08;;;;;;;5.80;0.80;;;18.20;91.60;;;;;;5014859;28;20037;-78
2022/09/19 12:50:41;;;;;;;4.45;0.80;;;18.20;91.70;;;;;;5015000;28;20026;-78
2022/09/19 12:53:31;;;;;;;6.70;1.13;;;18.20;91.80;;;;;;5014729;28;20490;-78
2022/09/19 12:56:15;;;;;;;6.75;1.02;;;18.20;90.70;;;;;;5015552;28;20406;-77
2022/09/19 12:59:05;;;;;;;7.40;1.50;;;18.20;91.20;;;;;;5015135;28;20022;-77
2022/09/19 13:01:39;;;;;;;6.38;0.90;;;18.30;91.10;;;;;;5013101;28;20033;-78
2022/09/19 13:04:28;;;;;;;7.35;0.98;;;18.30;91.30;;;;;;5014658;28;20021;-77
2022/09/19 13:07:31;;;;;;;5.88;1.15;;;18.30;90.80;;;;;;5010957;28;20096;-78
2022/09/19 13:10:00;;;;;;;6.10;1.08;;;18.30;88.80;;;;;;5012813;28;20435;-77
2022/09/19 13:13:01;;;;;;;6.20;0.70;;;18.30;89.70;;;;;;5014087;28;20037;-78
2022/09/19 13:15:32;;;;;;;5.40;0.93;;;18.30;90.40;;;;;;5010451;28;20113;-78
2022/09/19 13:23:42;;;;;;;8.93;1.52;;;18.40;88.70;;;;;;5017960;28;20024;-78
2022/09/19 13:26:17;;;;;;;9.32;1.13;;;18.40;90.50;;;;;;5023801;28;20030;-77
2022/09/19 13:28:56;;;;;;;6.78;0.73;;;18.40;90.30;;;;;;5013944;28;20101;-77
2022/09/19 13:31:45;;;;;;;5.63;0.80;;;18.40;89.60;;;;;;5012211;28;20045;-78
2022/09/19 13:34:42;;;;;;;12.57;1.45;;;18.40;90.40;;;;;;5011476;28;20545;-77
2022/09/19 13:37:26;;;;;;;5.22;0.60;;;18.50;89.20;;;;;;5013543;28;20105;-78